sensor_id;sensor_type;location;lat;lon;timestamp;P1;durP1;ratioP1;P2;durP2;ratioP2
33154;SDS011;19511;42.682;23.332;2023-03-22T00:00:52;2.30;;;1.85;;
33154;SDS011;19511;42.682;23.332;2023-03-22T00:03:19;3.85;;;2.75;;
33154;SDS011;19511;42.682;23.332;2023-03-22T00:05:47;5.13;;;2.70;;
33154;SDS011;19511;42.682;23.332;2023-03-22T00:08:13;3.95;;;2.70;;
33154;SDS011;19511;42.682;23.332;2023-03-22T00:10:39;6.38;;;3.65;;
33154;SDS011;19511;42.682;23.332;2023-03-22T00:13:05;3.95;;;2.63;;
33154;SDS011;19511;42.682;23.332;2023-03-22T00:15:32;8.48;;;3.38;;
33154;SDS011;19511;42.682;23.332;2023-03-22T00:17:58;3.85;;;2.38;;
33154;SDS011;19511;42.682;23.332;2023-03-22T00:20:25;3.60;;;2.70;;
33154;SDS011;19511;42.682;23.332;2023-03-22T00:22:50;4.35;;;2.65;;
33154;SDS011;19511;42.682;23.332;2023-03-22T00:25:16;7.68;;;3.13;;
33154;SDS011;19511;42.682;23.332;2023-03-22T00:27:43;2.97;;;2.05;;
33154;SDS011;19511;42.682;23.332;2023-03-22T00:30:09;7.28;;;3.78;;
33154;SDS011;19511;42.682;23.332;2023-03-22T00:32:36;6.80;;;3.47;;
33154;SDS011;19511;42.682;23.332;2023-03-22T00:35:08;5.40;;;3.35;;
33154;SDS011;19511;42.682;23.332;2023-03-22T00:37:35;7.20;;;3.15;;
33154;SDS011;19511;42.682;23.332;2023-03-22T00:40:07;5.97;;;3.30;;
33154;SDS011;19511;42.682;23.332;2023-03-22T00:42:39;4.30;;;2.58;;
33154;SDS011;19511;42.682;23.332;2023-03-22T00:45:06;6.38;;;2.83;;
33154;SDS011;19511;42.682;23.332;2023-03-22T00:47:33;4.80;;;2.28;;
33154;SDS011;19511;42.682;23.332;2023-03-22T00:49:59;3.80;;;2.70;;
33154;SDS011;19511;42.682;23.332;2023-03-22T00:52:25;2.85;;;2.08;;
33154;SDS011;19511;42.682;23.332;2023-03-22T00:54:54;5.22;;;2.60;;
33154;SDS011;19511;42.682;23.332;2023-03-22T00:57:19;3.95;;;2.95;;
33154;SDS011;19511;42.682;23.332;2023-03-22T00:59:49;3.08;;;2.20;;
33154;SDS011;19511;42.682;23.332;2023-03-22T01:02:17;3.08;;;2.10;;
33154;SDS011;19511;42.682;23.332;2023-03-22T01:04:43;3.28;;;2.55;;
33154;SDS011;19511;42.682;23.332;2023-03-22T01:07:12;3.90;;;2.72;;
33154;SDS011;19511;42.682;23.332;2023-03-22T01:09:42;4.35;;;2.70;;
33154;SDS011;19511;42.682;23.332;2023-03-22T01:12:09;5.05;;;2.90;;
33154;SDS011;19511;42.682;23.332;2023-03-22T01:14:38;3.13;;;2.17;;
33154;SDS011;19511;42.682;23.332;2023-03-22T01:17:04;4.28;;;3.28;;
33154;SDS011;19511;42.682;23.332;2023-03-22T01:19:31;6.50;;;3.28;;
33154;SDS011;19511;42.682;23.332;2023-03-22T01:21:57;4.03;;;2.53;;
33154;SDS011;19511;42.682;23.332;2023-03-22T01:24:23;4.88;;;2.80;;
33154;SDS011;19511;42.682;23.332;2023-03-22T01:26:49;4.43;;;2.50;;
33154;SDS011;19511;42.682;23.332;2023-03-22T01:29:15;5.82;;;3.15;;
33154;SDS011;19511;42.682;23.332;2023-03-22T01:31:40;4.88;;;2.53;;
33154;SDS011;19511;42.682;23.332;2023-03-22T01:34:06;6.20;;;2.88;;
33154;SDS011;19511;42.682;23.332;2023-03-22T01:36:32;4.45;;;2.75;;
33154;SDS011;19511;42.682;23.332;2023-03-22T01:38:57;3.78;;;2.35;;
33154;SDS011;19511;42.682;23.332;2023-03-22T01:41:23;3.60;;;2.50;;
33154;SDS011;19511;42.682;23.332;2023-03-22T01:46:40;4.65;;;2.72;;
33154;SDS011;19511;42.682;23.332;2023-03-22T01:49:16;10.43;;;2.55;;
33154;SDS011;19511;42.682;23.332;2023-03-22T01:51:50;4.85;;;2.83;;
33154;SDS011;19511;42.682;23.332;2023-03-22T01:54:25;5.35;;;2.63;;
33154;SDS011;19511;42.682;23.332;2023-03-22T01:57:06;4.10;;;2.78;;
33154;SDS011;19511;42.682;23.332;2023-03-22T01:59:33;4.07;;;2.53;;
33154;SDS011;19511;42.682;23.332;2023-03-22T02:01:59;4.50;;;2.97;;
33154;SDS011;19511;42.682;23.332;2023-03-22T02:04:26;5.10;;;2.42;;
33154;SDS011;19511;42.682;23.332;2023-03-22T02:06:59;4.22;;;2.30;;
33154;SDS011;19511;42.682;23.332;2023-03-22T02:09:34;4.72;;;3.38;;
33154;SDS011;19511;42.682;23.332;2023-03-22T02:20:46;7.03;;;3.03;;
33154;SDS011;19511;42.682;23.332;2023-03-22T02:23:43;4.75;;;2.95;;
33154;SDS011;19511;42.682;23.332;2023-03-22T02:33:00;4.93;;;2.55;;
33154;SDS011;19511;42.682;23.332;2023-03-22T02:38:38;6.68;;;3.75;;
33154;SDS011;19511;42.682;23.332;2023-03-22T02:40:47;4.43;;;2.80;;
33154;SDS011;19511;42.682;23.332;2023-03-22T02:43:35;5.72;;;2.75;;
33154;SDS011;19511;42.682;23.332;2023-03-22T02:46:11;6.75;;;4.53;;
33154;SDS011;19511;42.682;23.332;2023-03-22T02:48:52;7.13;;;3.53;;
33154;SDS011;19511;42.682;23.332;2023-03-22T02:51:30;6.15;;;3.63;;
33154;SDS011;19511;42.682;23.332;2023-03-22T02:54:02;5.75;;;3.08;;
33154;SDS011;19511;42.682;23.332;2023-03-22T02:56:35;6.68;;;3.97;;
33154;SDS011;19511;42.682;23.332;2023-03-22T02:59:07;3.50;;;2.60;;
33154;SDS011;19511;42.682;23.332;2023-03-22T03:04:39;4.30;;;2.22;;
33154;SDS011;19511;42.682;23.332;2023-03-22T03:07:12;4.28;;;2.65;;
33154;SDS011;19511;42.682;23.332;2023-03-22T03:09:41;5.68;;;3.35;;
33154;SDS011;19511;42.682;23.332;2023-03-22T03:12:19;4.97;;;2.65;;
33154;SDS011;19511;42.682;23.332;2023-03-22T03:14:47;3.45;;;1.92;;
33154;SDS011;19511;42.682;23.332;2023-03-22T03:30:59;5.38;;;2.28;;
33154;SDS011;19511;42.682;23.332;2023-03-22T03:33:35;3.65;;;2.40;;
33154;SDS011;19511;42.682;23.332;2023-03-22T03:36:10;9.98;;;2.55;;
33154;SDS011;19511;42.682;23.332;2023-03-22T03:38:39;3.22;;;1.95;;
33154;SDS011;19511;42.682;23.332;2023-03-22T03:41:15;2.13;;;1.75;;
33154;SDS011;19511;42.682;23.332;2023-03-22T03:43:44;2.85;;;1.40;;
33154;SDS011;19511;42.682;23.332;2023-03-22T03:46:15;3.58;;;1.83;;
33154;SDS011;19511;42.682;23.332;2023-03-22T03:48:42;2.20;;;1.70;;
33154;SDS011;19511;42.682;23.332;2023-03-22T03:51:17;1.67;;;1.20;;
33154;SDS011;19511;42.682;23.332;2023-03-22T03:53:45;3.42;;;1.83;;
33154;SDS011;19511;42.682;23.332;2023-03-22T03:56:17;1.35;;;1.02;;
33154;SDS011;19511;42.682;23.332;2023-03-22T03:58:46;2.20;;;1.60;;
33154;SDS011;19511;42.682;23.332;2023-03-22T04:01:14;1.40;;;1.00;;
33154;SDS011;19511;42.682;23.332;2023-03-22T04:03:43;1.75;;;1.40;;
33154;SDS011;19511;42.682;23.332;2023-03-22T04:06:10;1.90;;;1.27;;
33154;SDS011;19511;42.682;23.332;2023-03-22T04:08:42;1.70;;;1.02;;
33154;SDS011;19511;42.682;23.332;2023-03-22T04:11:09;4.45;;;2.13;;
33154;SDS011;19511;42.682;23.332;2023-03-22T04:13:34;2.20;;;1.38;;
33154;SDS011;19511;42.682;23.332;2023-03-22T04:16:04;4.68;;;1.52;;
33154;SDS011;19511;42.682;23.332;2023-03-22T04:18:30;4.60;;;1.98;;
33154;SDS011;19511;42.682;23.332;2023-03-22T04:20:56;2.58;;;1.60;;
33154;SDS011;19511;42.682;23.332;2023-03-22T04:23:24;1.63;;;1.40;;
33154;SDS011;19511;42.682;23.332;2023-03-22T04:25:50;2.15;;;1.83;;
33154;SDS011;19511;42.682;23.332;2023-03-22T04:28:15;1.83;;;1.10;;
33154;SDS011;19511;42.682;23.332;2023-03-22T04:30:43;1.45;;;1.23;;
33154;SDS011;19511;42.682;23.332;2023-03-22T04:33:09;1.23;;;1.13;;
33154;SDS011;19511;42.682;23.332;2023-03-22T04:35:37;3.25;;;1.92;;
33154;SDS011;19511;42.682;23.332;2023-03-22T04:38:02;3.60;;;1.55;;
33154;SDS011;19511;42.682;23.332;2023-03-22T04:40:27;4.68;;;2.60;;
33154;SDS011;19511;42.682;23.332;2023-03-22T04:42:59;2.70;;;1.50;;
33154;SDS011;19511;42.682;23.332;2023-03-22T04:45:28;2.00;;;1.55;;
33154;SDS011;19511;42.682;23.332;2023-03-22T04:47:59;2.15;;;1.60;;
33154;SDS011;19511;42.682;23.332;2023-03-22T04:50:27;3.45;;;1.80;;
33154;SDS011;19511;42.682;23.332;2023-03-22T04:52:52;3.88;;;2.08;;
33154;SDS011;19511;42.682;23.332;2023-03-22T04:55:18;2.38;;;1.60;;
33154;SDS011;19511;42.682;23.332;2023-03-22T04:57:45;2.28;;;1.55;;
33154;SDS011;19511;42.682;23.332;2023-03-22T05:00:18;2.33;;;1.48;;
33154;SDS011;19511;42.682;23.332;2023-03-22T05:02:45;3.13;;;1.70;;
33154;SDS011;19511;42.682;23.332;2023-03-22T05:05:13;4.50;;;2.80;;
33154;SDS011;19511;42.682;23.332;2023-03-22T05:07:38;3.13;;;1.60;;
33154;SDS011;19511;42.682;23.332;2023-03-22T05:10:07;4.07;;;1.63;;
33154;SDS011;19511;42.682;23.332;2023-03-22T05:12:33;9.60;;;2.65;;
33154;SDS011;19511;42.682;23.332;2023-03-22T05:14:59;5.78;;;2.15;;
33154;SDS011;19511;42.682;23.332;2023-03-22T05:17:27;5.72;;;2.50;;
33154;SDS011;19511;42.682;23.332;2023-03-22T05:19:57;3.92;;;1.67;;
33154;SDS011;19511;42.682;23.332;2023-03-22T05:22:22;3.53;;;2.20;;
33154;SDS011;19511;42.682;23.332;2023-03-22T05:24:48;6.65;;;2.28;;
33154;SDS011;19511;42.682;23.332;2023-03-22T05:27:13;4.38;;;2.03;;
33154;SDS011;19511;42.682;23.332;2023-03-22T05:29:39;3.30;;;2.10;;
33154;SDS011;19511;42.682;23.332;2023-03-22T05:32:09;4.50;;;2.15;;
33154;SDS011;19511;42.682;23.332;2023-03-22T05:34:35;3.80;;;2.70;;
33154;SDS011;19511;42.682;23.332;2023-03-22T05:37:02;3.25;;;2.08;;
33154;SDS011;19511;42.682;23.332;2023-03-22T05:39:27;2.20;;;2.00;;
33154;SDS011;19511;42.682;23.332;2023-03-22T05:41:53;4.03;;;3.13;;
33154;SDS011;19511;42.682;23.332;2023-03-22T05:44:19;3.55;;;2.40;;
33154;SDS011;19511;42.682;23.332;2023-03-22T05:46:44;3.67;;;1.92;;
33154;SDS011;19511;42.682;23.332;2023-03-22T05:49:15;4.05;;;1.92;;
33154;SDS011;19511;42.682;23.332;2023-03-22T05:51:44;3.65;;;2.67;;
33154;SDS011;19511;42.682;23.332;2023-03-22T05:54:09;4.45;;;2.67;;
33154;SDS011;19511;42.682;23.332;2023-03-22T05:56:34;3.38;;;2.30;;
33154;SDS011;19511;42.682;23.332;2023-03-22T05:59:00;8.95;;;2.67;;
33154;SDS011;19511;42.682;23.332;2023-03-22T06:01:34;3.67;;;2.40;;
33154;SDS011;19511;42.682;23.332;2023-03-22T06:04:00;3.78;;;2.30;;
33154;SDS011;19511;42.682;23.332;2023-03-22T06:06:25;5.28;;;2.45;;
33154;SDS011;19511;42.682;23.332;2023-03-22T06:08:52;2.55;;;2.00;;
33154;SDS011;19511;42.682;23.332;2023-03-22T06:11:18;10.80;;;2.30;;
33154;SDS011;19511;42.682;23.332;2023-03-22T06:13:43;3.70;;;2.42;;
33154;SDS011;19511;42.682;23.332;2023-03-22T06:16:09;4.35;;;3.35;;
33154;SDS011;19511;42.682;23.332;2023-03-22T06:18:35;4.72;;;2.80;;
33154;SDS011;19511;42.682;23.332;2023-03-22T06:21:00;4.60;;;2.35;;
33154;SDS011;19511;42.682;23.332;2023-03-22T06:23:26;4.35;;;2.58;;
33154;SDS011;19511;42.682;23.332;2023-03-22T06:25:52;3.08;;;2.10;;
33154;SDS011;19511;42.682;23.332;2023-03-22T06:28:17;5.05;;;3.00;;
33154;SDS011;19511;42.682;23.332;2023-03-22T06:30:43;6.28;;;2.63;;
33154;SDS011;19511;42.682;23.332;2023-03-22T06:33:08;6.22;;;3.00;;
33154;SDS011;19511;42.682;23.332;2023-03-22T06:35:34;5.70;;;3.00;;
33154;SDS011;19511;42.682;23.332;2023-03-22T06:38:00;4.18;;;2.40;;
33154;SDS011;19511;42.682;23.332;2023-03-22T06:40:25;5.78;;;2.83;;
33154;SDS011;19511;42.682;23.332;2023-03-22T06:42:51;4.45;;;2.63;;
33154;SDS011;19511;42.682;23.332;2023-03-22T06:45:18;5.28;;;2.90;;
33154;SDS011;19511;42.682;23.332;2023-03-22T06:47:44;3.67;;;2.60;;
33154;SDS011;19511;42.682;23.332;2023-03-22T06:50:14;4.82;;;2.28;;
33154;SDS011;19511;42.682;23.332;2023-03-22T06:52:40;5.05;;;3.00;;
33154;SDS011;19511;42.682;23.332;2023-03-22T06:55:06;4.18;;;2.20;;
33154;SDS011;19511;42.682;23.332;2023-03-22T06:57:35;6.25;;;2.75;;
33154;SDS011;19511;42.682;23.332;2023-03-22T07:00:01;5.80;;;3.42;;
33154;SDS011;19511;42.682;23.332;2023-03-22T07:02:29;12.20;;;4.70;;
33154;SDS011;19511;42.682;23.332;2023-03-22T07:04:54;9.60;;;4.40;;
33154;SDS011;19511;42.682;23.332;2023-03-22T07:07:23;7.05;;;4.05;;
33154;SDS011;19511;42.682;23.332;2023-03-22T07:09:48;12.25;;;4.60;;
33154;SDS011;19511;42.682;23.332;2023-03-22T07:12:14;12.45;;;5.65;;
33154;SDS011;19511;42.682;23.332;2023-03-22T07:14:42;10.32;;;5.50;;
33154;SDS011;19511;42.682;23.332;2023-03-22T07:17:08;12.60;;;6.68;;
33154;SDS011;19511;42.682;23.332;2023-03-22T07:19:38;11.18;;;6.68;;
33154;SDS011;19511;42.682;23.332;2023-03-22T07:22:04;14.95;;;7.78;;
33154;SDS011;19511;42.682;23.332;2023-03-22T07:24:30;12.70;;;7.30;;
33154;SDS011;19511;42.682;23.332;2023-03-22T07:26:55;12.35;;;7.15;;
33154;SDS011;19511;42.682;23.332;2023-03-22T07:29:21;9.68;;;6.28;;
33154;SDS011;19511;42.682;23.332;2023-03-22T07:31:49;8.77;;;5.25;;
33154;SDS011;19511;42.682;23.332;2023-03-22T07:34:15;9.00;;;4.10;;
33154;SDS011;19511;42.682;23.332;2023-03-22T07:36:41;7.32;;;4.65;;
33154;SDS011;19511;42.682;23.332;2023-03-22T07:39:06;9.07;;;5.00;;
33154;SDS011;19511;42.682;23.332;2023-03-22T07:41:31;8.60;;;4.55;;
33154;SDS011;19511;42.682;23.332;2023-03-22T07:43:57;10.25;;;4.63;;
33154;SDS011;19511;42.682;23.332;2023-03-22T07:46:22;7.10;;;4.00;;
33154;SDS011;19511;42.682;23.332;2023-03-22T07:48:48;6.90;;;3.90;;
33154;SDS011;19511;42.682;23.332;2023-03-22T07:51:13;8.38;;;4.25;;
33154;SDS011;19511;42.682;23.332;2023-03-22T07:53:39;6.78;;;3.92;;
33154;SDS011;19511;42.682;23.332;2023-03-22T07:56:04;6.47;;;3.88;;
33154;SDS011;19511;42.682;23.332;2023-03-22T07:58:30;8.15;;;3.83;;
33154;SDS011;19511;42.682;23.332;2023-03-22T08:00:56;6.93;;;3.88;;
33154;SDS011;19511;42.682;23.332;2023-03-22T08:03:22;7.22;;;4.20;;
33154;SDS011;19511;42.682;23.332;2023-03-22T08:05:48;7.82;;;3.50;;
33154;SDS011;19511;42.682;23.332;2023-03-22T08:08:13;6.28;;;4.03;;
33154;SDS011;19511;42.682;23.332;2023-03-22T08:10:39;6.88;;;3.83;;
33154;SDS011;19511;42.682;23.332;2023-03-22T08:13:05;11.32;;;3.90;;
33154;SDS011;19511;42.682;23.332;2023-03-22T08:15:30;5.65;;;3.83;;
33154;SDS011;19511;42.682;23.332;2023-03-22T08:17:56;4.88;;;3.17;;
33154;SDS011;19511;42.682;23.332;2023-03-22T08:20:25;6.43;;;4.07;;
33154;SDS011;19511;42.682;23.332;2023-03-22T08:22:51;5.63;;;3.30;;
33154;SDS011;19511;42.682;23.332;2023-03-22T08:25:17;7.07;;;3.28;;
33154;SDS011;19511;42.682;23.332;2023-03-22T08:27:43;12.50;;;4.43;;
33154;SDS011;19511;42.682;23.332;2023-03-22T08:30:11;7.00;;;3.97;;
33154;SDS011;19511;42.682;23.332;2023-03-22T08:32:37;5.53;;;3.42;;
33154;SDS011;19511;42.682;23.332;2023-03-22T08:35:05;5.53;;;3.35;;
33154;SDS011;19511;42.682;23.332;2023-03-22T08:37:34;7.50;;;3.83;;
33154;SDS011;19511;42.682;23.332;2023-03-22T08:39:59;7.65;;;3.75;;
33154;SDS011;19511;42.682;23.332;2023-03-22T08:42:25;5.45;;;3.55;;
33154;SDS011;19511;42.682;23.332;2023-03-22T08:44:50;5.25;;;3.13;;
33154;SDS011;19511;42.682;23.332;2023-03-22T08:47:16;4.88;;;3.25;;
33154;SDS011;19511;42.682;23.332;2023-03-22T08:49:42;3.90;;;3.10;;
33154;SDS011;19511;42.682;23.332;2023-03-22T08:52:07;6.03;;;3.97;;
33154;SDS011;19511;42.682;23.332;2023-03-22T08:54:33;5.13;;;3.53;;
33154;SDS011;19511;42.682;23.332;2023-03-22T08:56:58;9.60;;;4.78;;
33154;SDS011;19511;42.682;23.332;2023-03-22T08:59:24;8.15;;;4.65;;
33154;SDS011;19511;42.682;23.332;2023-03-22T09:01:54;12.75;;;6.70;;
33154;SDS011;19511;42.682;23.332;2023-03-22T09:04:21;13.73;;;8.15;;
33154;SDS011;19511;42.682;23.332;2023-03-22T09:06:48;20.10;;;9.85;;
33154;SDS011;19511;42.682;23.332;2023-03-22T09:09:13;18.10;;;9.93;;
33154;SDS011;19511;42.682;23.332;2023-03-22T09:11:39;11.38;;;6.70;;
33154;SDS011;19511;42.682;23.332;2023-03-22T09:14:06;6.65;;;3.15;;
33154;SDS011;19511;42.682;23.332;2023-03-22T09:16:32;7.90;;;4.30;;
33154;SDS011;19511;42.682;23.332;2023-03-22T09:18:58;5.95;;;3.85;;
33154;SDS011;19511;42.682;23.332;2023-03-22T09:21:23;7.82;;;4.20;;
33154;SDS011;19511;42.682;23.332;2023-03-22T09:23:49;10.85;;;4.95;;
33154;SDS011;19511;42.682;23.332;2023-03-22T09:26:14;8.68;;;4.43;;
33154;SDS011;19511;42.682;23.332;2023-03-22T09:28:41;16.38;;;4.20;;
33154;SDS011;19511;42.682;23.332;2023-03-22T09:31:08;7.85;;;4.55;;
33154;SDS011;19511;42.682;23.332;2023-03-22T09:33:36;9.70;;;4.88;;
33154;SDS011;19511;42.682;23.332;2023-03-22T09:36:07;10.23;;;4.20;;
33154;SDS011;19511;42.682;23.332;2023-03-22T09:38:34;6.72;;;3.88;;
33154;SDS011;19511;42.682;23.332;2023-03-22T09:41:03;5.90;;;3.92;;
33154;SDS011;19511;42.682;23.332;2023-03-22T09:43:33;9.77;;;4.32;;
33154;SDS011;19511;42.682;23.332;2023-03-22T09:46:02;9.23;;;4.15;;
33154;SDS011;19511;42.682;23.332;2023-03-22T09:48:31;6.07;;;3.80;;
33154;SDS011;19511;42.682;23.332;2023-03-22T09:51:00;6.32;;;4.15;;
33154;SDS011;19511;42.682;23.332;2023-03-22T09:53:28;9.20;;;4.53;;
33154;SDS011;19511;42.682;23.332;2023-03-22T09:55:58;9.93;;;4.50;;
33154;SDS011;19511;42.682;23.332;2023-03-22T10:03:58;8.75;;;4.07;;
33154;SDS011;19511;42.682;23.332;2023-03-22T10:06:30;8.98;;;4.47;;
33154;SDS011;19511;42.682;23.332;2023-03-22T10:14:44;6.13;;;2.80;;
33154;SDS011;19511;42.682;23.332;2023-03-22T10:17:17;8.38;;;3.50;;
33154;SDS011;19511;42.682;23.332;2023-03-22T10:19:53;8.87;;;3.27;;
33154;SDS011;19511;42.682;23.332;2023-03-22T10:22:34;4.47;;;2.80;;
33154;SDS011;19511;42.682;23.332;2023-03-22T10:25:02;7.93;;;3.47;;
33154;SDS011;19511;42.682;23.332;2023-03-22T10:27:31;7.32;;;3.60;;
33154;SDS011;19511;42.682;23.332;2023-03-22T10:32:30;5.43;;;2.92;;
33154;SDS011;19511;42.682;23.332;2023-03-22T10:35:03;5.78;;;3.22;;
33154;SDS011;19511;42.682;23.332;2023-03-22T10:37:33;5.47;;;3.25;;
33154;SDS011;19511;42.682;23.332;2023-03-22T10:40:06;6.95;;;3.50;;
33154;SDS011;19511;42.682;23.332;2023-03-22T10:42:41;6.18;;;3.20;;
33154;SDS011;19511;42.682;23.332;2023-03-22T10:45:15;6.30;;;3.53;;
33154;SDS011;19511;42.682;23.332;2023-03-22T10:47:42;7.55;;;4.20;;
33154;SDS011;19511;42.682;23.332;2023-03-22T10:50:17;6.63;;;3.83;;
33154;SDS011;19511;42.682;23.332;2023-03-22T10:52:55;7.55;;;4.22;;
33154;SDS011;19511;42.682;23.332;2023-03-22T10:55:28;6.40;;;3.38;;
33154;SDS011;19511;42.682;23.332;2023-03-22T10:58:13;7.43;;;3.47;;
33154;SDS011;19511;42.682;23.332;2023-03-22T11:00:46;4.97;;;3.22;;
33154;SDS011;19511;42.682;23.332;2023-03-22T11:06:08;6.05;;;3.50;;
33154;SDS011;19511;42.682;23.332;2023-03-22T11:13:53;8.00;;;3.40;;
33154;SDS011;19511;42.682;23.332;2023-03-22T11:16:19;7.07;;;4.28;;
33154;SDS011;19511;42.682;23.332;2023-03-22T11:18:46;9.52;;;2.83;;
33154;SDS011;19511;42.682;23.332;2023-03-22T11:21:12;5.47;;;3.13;;
33154;SDS011;19511;42.682;23.332;2023-03-22T11:24:03;9.27;;;4.82;;
33154;SDS011;19511;42.682;23.332;2023-03-22T11:26:32;8.00;;;4.53;;
33154;SDS011;19511;42.682;23.332;2023-03-22T11:29:12;8.32;;;4.07;;
33154;SDS011;19511;42.682;23.332;2023-03-22T11:31:53;7.28;;;3.92;;
33154;SDS011;19511;42.682;23.332;2023-03-22T11:34:22;10.80;;;3.45;;
33154;SDS011;19511;42.682;23.332;2023-03-22T11:36:53;11.65;;;3.83;;
33154;SDS011;19511;42.682;23.332;2023-03-22T11:39:21;4.25;;;2.45;;
33154;SDS011;19511;42.682;23.332;2023-03-22T11:41:50;6.53;;;3.67;;
33154;SDS011;19511;42.682;23.332;2023-03-22T11:44:18;5.47;;;3.05;;
33154;SDS011;19511;42.682;23.332;2023-03-22T11:46:51;7.50;;;2.90;;
33154;SDS011;19511;42.682;23.332;2023-03-22T11:49:22;4.28;;;2.80;;
33154;SDS011;19511;42.682;23.332;2023-03-22T11:51:52;6.13;;;3.45;;
33154;SDS011;19511;42.682;23.332;2023-03-22T11:54:26;5.25;;;2.75;;
33154;SDS011;19511;42.682;23.332;2023-03-22T11:56:58;5.70;;;3.22;;
33154;SDS011;19511;42.682;23.332;2023-03-22T11:59:36;9.45;;;3.92;;
33154;SDS011;19511;42.682;23.332;2023-03-22T12:04:38;7.72;;;4.50;;
33154;SDS011;19511;42.682;23.332;2023-03-22T12:07:14;9.20;;;4.90;;
33154;SDS011;19511;42.682;23.332;2023-03-22T12:09:59;6.95;;;4.10;;
33154;SDS011;19511;42.682;23.332;2023-03-22T12:12:31;6.47;;;3.67;;
33154;SDS011;19511;42.682;23.332;2023-03-22T12:18:03;12.20;;;3.60;;
33154;SDS011;19511;42.682;23.332;2023-03-22T12:20:40;7.95;;;4.13;;
33154;SDS011;19511;42.682;23.332;2023-03-22T12:23:14;7.07;;;4.05;;
33154;SDS011;19511;42.682;23.332;2023-03-22T12:25:43;9.77;;;4.40;;
33154;SDS011;19511;42.682;23.332;2023-03-22T12:28:16;9.20;;;5.18;;
33154;SDS011;19511;42.682;23.332;2023-03-22T12:30:48;12.60;;;6.00;;
33154;SDS011;19511;42.682;23.332;2023-03-22T12:33:21;13.85;;;8.00;;
33154;SDS011;19511;42.682;23.332;2023-03-22T12:35:51;11.70;;;6.85;;
33154;SDS011;19511;42.682;23.332;2023-03-22T12:40:49;7.90;;;3.92;;
33154;SDS011;19511;42.682;23.332;2023-03-22T12:43:33;8.05;;;3.70;;
33154;SDS011;19511;42.682;23.332;2023-03-22T12:46:28;5.22;;;2.78;;
33154;SDS011;19511;42.682;23.332;2023-03-22T12:49:05;5.05;;;2.55;;
33154;SDS011;19511;42.682;23.332;2023-03-22T12:51:45;4.85;;;2.22;;
33154;SDS011;19511;42.682;23.332;2023-03-22T12:54:12;5.65;;;2.38;;
33154;SDS011;19511;42.682;23.332;2023-03-22T12:56:41;7.65;;;3.22;;
33154;SDS011;19511;42.682;23.332;2023-03-22T12:59:16;4.40;;;1.90;;
33154;SDS011;19511;42.682;23.332;2023-03-22T13:01:47;4.13;;;2.10;;
33154;SDS011;19511;42.682;23.332;2023-03-22T13:22:30;3.75;;;2.05;;
33154;SDS011;19511;42.682;23.332;2023-03-22T13:33:18;3.15;;;1.67;;
33154;SDS011;19511;42.682;23.332;2023-03-22T13:35:50;7.10;;;2.70;;
33154;SDS011;19511;42.682;23.332;2023-03-22T13:38:22;5.15;;;2.88;;
33154;SDS011;19511;42.682;23.332;2023-03-22T13:40:55;2.80;;;1.77;;
33154;SDS011;19511;42.682;23.332;2023-03-22T13:51:20;4.60;;;2.70;;
33154;SDS011;19511;42.682;23.332;2023-03-22T13:54:04;4.45;;;2.50;;
33154;SDS011;19511;42.682;23.332;2023-03-22T14:01:37;3.58;;;2.05;;
33154;SDS011;19511;42.682;23.332;2023-03-22T14:04:12;4.78;;;2.67;;
33154;SDS011;19511;42.682;23.332;2023-03-22T14:06:59;5.03;;;2.25;;
33154;SDS011;19511;42.682;23.332;2023-03-22T14:09:37;3.70;;;2.20;;
33154;SDS011;19511;42.682;23.332;2023-03-22T14:14:41;4.68;;;2.42;;
33154;SDS011;19511;42.682;23.332;2023-03-22T14:19:53;5.82;;;3.75;;
33154;SDS011;19511;42.682;23.332;2023-03-22T14:22:26;5.82;;;3.72;;
33154;SDS011;19511;42.682;23.332;2023-03-22T14:24:57;8.70;;;3.20;;
33154;SDS011;19511;42.682;23.332;2023-03-22T14:27:24;6.68;;;4.03;;
33154;SDS011;19511;42.682;23.332;2023-03-22T14:29:50;7.85;;;3.30;;
33154;SDS011;19511;42.682;23.332;2023-03-22T14:32:18;5.85;;;3.25;;
33154;SDS011;19511;42.682;23.332;2023-03-22T14:34:49;7.65;;;3.47;;
33154;SDS011;19511;42.682;23.332;2023-03-22T14:37:18;5.75;;;3.30;;
33154;SDS011;19511;42.682;23.332;2023-03-22T14:39:45;11.98;;;4.68;;
33154;SDS011;19511;42.682;23.332;2023-03-22T14:42:16;5.35;;;3.55;;
33154;SDS011;19511;42.682;23.332;2023-03-22T14:44:57;8.13;;;3.90;;
33154;SDS011;19511;42.682;23.332;2023-03-22T14:47:28;7.50;;;4.40;;
33154;SDS011;19511;42.682;23.332;2023-03-22T14:49:59;12.27;;;4.95;;
33154;SDS011;19511;42.682;23.332;2023-03-22T14:52:30;7.45;;;3.95;;
33154;SDS011;19511;42.682;23.332;2023-03-22T14:55:02;11.63;;;4.82;;
33154;SDS011;19511;42.682;23.332;2023-03-22T14:57:32;9.82;;;5.50;;
33154;SDS011;19511;42.682;23.332;2023-03-22T15:00:02;9.20;;;4.22;;
33154;SDS011;19511;42.682;23.332;2023-03-22T15:03:01;5.72;;;3.70;;
33154;SDS011;19511;42.682;23.332;2023-03-22T15:05:32;5.05;;;2.88;;
33154;SDS011;19511;42.682;23.332;2023-03-22T15:10:40;10.43;;;4.70;;
33154;SDS011;19511;42.682;23.332;2023-03-22T15:13:07;9.73;;;5.10;;
33154;SDS011;19511;42.682;23.332;2023-03-22T15:15:36;9.63;;;4.85;;
33154;SDS011;19511;42.682;23.332;2023-03-22T15:18:04;8.25;;;4.45;;
33154;SDS011;19511;42.682;23.332;2023-03-22T15:20:37;8.43;;;3.58;;
33154;SDS011;19511;42.682;23.332;2023-03-22T15:23:47;5.55;;;3.47;;
33154;SDS011;19511;42.682;23.332;2023-03-22T15:25:58;11.52;;;5.00;;
33154;SDS011;19511;42.682;23.332;2023-03-22T15:28:30;8.77;;;3.85;;
33154;SDS011;19511;42.682;23.332;2023-03-22T15:34:17;5.82;;;3.38;;
33154;SDS011;19511;42.682;23.332;2023-03-22T15:36:47;8.80;;;4.28;;
33154;SDS011;19511;42.682;23.332;2023-03-22T15:39:22;9.63;;;3.97;;
33154;SDS011;19511;42.682;23.332;2023-03-22T15:42:32;7.45;;;3.92;;
33154;SDS011;19511;42.682;23.332;2023-03-22T15:45:01;5.47;;;3.00;;
33154;SDS011;19511;42.682;23.332;2023-03-22T15:47:51;6.47;;;3.83;;
33154;SDS011;19511;42.682;23.332;2023-03-22T15:50:19;9.90;;;4.38;;
33154;SDS011;19511;42.682;23.332;2023-03-22T15:52:50;9.32;;;3.95;;
33154;SDS011;19511;42.682;23.332;2023-03-22T15:55:18;6.80;;;4.13;;
33154;SDS011;19511;42.682;23.332;2023-03-22T16:05:37;9.30;;;4.25;;
33154;SDS011;19511;42.682;23.332;2023-03-22T16:08:05;8.60;;;3.55;;
33154;SDS011;19511;42.682;23.332;2023-03-22T16:10:32;12.45;;;3.45;;
33154;SDS011;19511;42.682;23.332;2023-03-22T16:12:59;7.30;;;3.90;;
33154;SDS011;19511;42.682;23.332;2023-03-22T16:15:30;10.30;;;4.72;;
33154;SDS011;19511;42.682;23.332;2023-03-22T16:18:00;19.40;;;5.28;;
33154;SDS011;19511;42.682;23.332;2023-03-22T16:20:26;13.65;;;6.15;;
33154;SDS011;19511;42.682;23.332;2023-03-22T16:22:56;12.57;;;5.53;;
33154;SDS011;19511;42.682;23.332;2023-03-22T16:25:23;13.30;;;5.50;;
33154;SDS011;19511;42.682;23.332;2023-03-22T16:27:53;16.20;;;6.13;;
33154;SDS011;19511;42.682;23.332;2023-03-22T16:30:19;13.85;;;5.95;;
33154;SDS011;19511;42.682;23.332;2023-03-22T16:32:45;14.13;;;5.97;;
33154;SDS011;19511;42.682;23.332;2023-03-22T16:37:41;19.02;;;8.05;;
33154;SDS011;19511;42.682;23.332;2023-03-22T16:40:12;19.42;;;8.15;;
33154;SDS011;19511;42.682;23.332;2023-03-22T16:42:43;22.95;;;8.32;;
33154;SDS011;19511;42.682;23.332;2023-03-22T16:45:12;25.27;;;9.00;;
33154;SDS011;19511;42.682;23.332;2023-03-22T16:47:43;32.85;;;11.93;;
33154;SDS011;19511;42.682;23.332;2023-03-22T16:50:09;40.47;;;13.40;;
33154;SDS011;19511;42.682;23.332;2023-03-22T16:52:35;35.22;;;15.10;;
33154;SDS011;19511;42.682;23.332;2023-03-22T16:55:03;39.30;;;15.80;;